Time,TemperatureF,DewpointF,PressureIn,WindDirection,WindDirectionDegrees,WindSpeedMPH,WindSpeedGustMPH,Humidity,HourlyPrecipIn,Conditions,Clouds,dailyrainin,SoftwareType,DateUTC
2013-04-07 00:03:00,64.8,57.0,29.85,SE,134,5.0,-999.0,77,-99.99,,,0.00,weatherlink.com 1.10,2013-04-07 05:03:00,
2013-04-07 00:33:00,64.1,57.0,29.86,SSE,160,0.0,-999.0,78,-99.99,,,0.00,weatherlink.com 1.10,2013-04-07 05:33:00,
2013-04-07 00:48:00,63.8,57.0,29.86,South,171,0.0,-999.0,79,-99.99,,,0.00,weatherlink.com 1.10,2013-04-07 05:48:00,
2013-04-07 03:03:00,61.8,56.0,29.85,South,188,0.0,-999.0,82,-99.99,,,0.00,weatherlink.com 1.10,2013-04-07 08:03:00,
2013-04-07 03:04:00,61.8,56.0,29.85,SE,139,0.0,-999.0,82,-99.99,,,0.00,weatherlink.com 1.10,2013-04-07 08:04:00,
2013-04-07 03:39:00,61.2,56.0,29.84,SE,133,0.0,-999.0,84,-99.99,,,0.00,weatherlink.com 1.10,2013-04-07 08:39:00,
2013-04-07 03:49:00,61.1,56.0,29.85,SSW,209,0.0,-999.0,84,-99.99,,,0.00,weatherlink.com 1.10,2013-04-07 08:49:00,
2013-04-07 04:19:00,61.4,57.0,29.85,SE,139,0.0,-999.0,84,-99.99,,,0.00,weatherlink.com 1.10,2013-04-07 09:19:00,
2013-04-07 04:34:00,61.5,57.0,29.85,East,86,0.0,-999.0,85,-99.99,,,0.00,weatherlink.com 1.10,2013-04-07 09:34:00,
2013-04-07 04:49:00,61.6,57.0,29.85,SE,145,0.0,-999.0,85,-99.99,,,0.00,weatherlink.com 1.10,2013-04-07 09:49:00,
2013-04-07 05:04:00,61.8,57.0,29.85,SW,229,0.0,-999.0,85,-99.99,,,0.00,weatherlink.com 1.10,2013-04-07 10:04:00,
2013-04-07 05:19:00,62.0,57.0,29.85,SSE,150,0.0,-999.0,84,-99.99,,,0.00,weatherlink.com 1.10,2013-04-07 10:19:00,
2013-04-07 05:34:00,62.2,58.0,29.85,SE,138,0.0,-999.0,85,-99.99,,,0.00,weatherlink.com 1.10,2013-04-07 10:34:00,
2013-04-07 06:04:00,62.5,58.0,29.85,SSE,150,0.0,-999.0,84,-99.99,,,0.00,weatherlink.com 1.10,2013-04-07 11:04:00,
2013-04-07 06:19:00,62.6,58.0,29.85,SSE,157,0.0,-999.0,84,-99.99,,,0.00,weatherlink.com 1.10,2013-04-07 11:19:00,
2013-04-07 06:34:00,62.6,58.0,29.86,SE,146,3.0,-999.0,84,-99.99,,,0.00,weatherlink.com 1.10,2013-04-07 11:34:00,
2013-04-07 06:49:00,62.7,58.0,29.86,SE,124,0.0,-999.0,84,-99.99,,,0.00,weatherlink.com 1.10,2013-04-07 11:49:00,
2013-04-07 07:04:00,62.7,58.0,29.86,SE,141,0.0,-999.0,84,-99.99,,,0.00,weatherlink.com 1.10,2013-04-07 12:04:00,
2013-04-07 07:19:00,62.7,58.0,29.87,SSE,151,0.0,-999.0,85,-99.99,,,0.00,weatherlink.com 1.10,2013-04-07 12:19:00,
2013-04-07 07:34:00,62.6,58.0,29.87,SSW,209,0.0,-999.0,85,-99.99,,,0.00,weatherlink.com 1.10,2013-04-07 12:34:00,
2013-04-07 07:49:00,62.4,58.0,29.87,South,175,0.0,-999.0,85,-99.99,,,0.00,weatherlink.com 1.10,2013-04-07 12:49:00,
2013-04-07 08:04:00,62.3,58.0,29.88,SSE,153,0.0,-999.0,85,-99.99,,,0.00,weatherlink.com 1.10,2013-04-07 13:04:00,
2013-04-07 08:19:00,62.4,58.0,29.88,SSE,156,0.0,-999.0,85,-99.99,,,0.00,weatherlink.com 1.10,2013-04-07 13:19:00,
2013-04-07 08:34:00,62.6,58.0,29.88,SSW,192,0.0,-999.0,85,-99.99,,,0.00,weatherlink.com 1.10,2013-04-07 13:34:00,
2013-04-07 08:49:00,62.8,58.0,29.88,SSW,205,0.0,-999.0,85,-99.99,,,0.00,weatherlink.com 1.10,2013-04-07 13:49:00,
2013-04-07 09:04:00,63.0,59.0,29.89,SSW,192,0.0,-999.0,85,-99.99,,,0.00,weatherlink.com 1.10,2013-04-07 14:04:00,
2013-04-07 09:19:00,63.2,59.0,29.88,SW,215,0.0,-999.0,85,-99.99,,,0.00,weatherlink.com 1.10,2013-04-07 14:19:00,
2013-04-07 09:34:00,63.6,59.0,29.88,SE,140,0.0,-999.0,84,-99.99,,,0.00,weatherlink.com 1.10,2013-04-07 14:34:00,
2013-04-07 09:49:00,63.9,59.0,29.88,SE,128,0.0,-999.0,83,-99.99,,,0.00,weatherlink.com 1.10,2013-04-07 14:49:00,
2013-04-07 10:19:00,64.8,59.0,29.88,ENE,74,0.0,-999.0,82,-99.99,,,0.00,weatherlink.com 1.10,2013-04-07 15:19:00,
2013-04-07 10:34:00,65.2,59.0,29.88,SSW,206,0.0,-999.0,81,-99.99,,,0.00,weatherlink.com 1.10,2013-04-07 15:34:00,
2013-04-07 10:49:00,65.9,60.0,29.87,SE,127,3.0,-999.0,80,-99.99,,,0.00,weatherlink.com 1.10,2013-04-07 15:49:00,
2013-04-07 11:04:00,66.3,60.0,29.88,SE,138,0.0,-999.0,80,-99.99,,,0.00,weatherlink.com 1.10,2013-04-07 16:04:00,
2013-04-07 11:19:00,66.6,60.0,29.88,South,180,3.0,-999.0,79,-99.99,,,0.00,weatherlink.com 1.10,2013-04-07 16:19:00,
2013-04-07 11:34:00,66.9,60.0,29.88,SW,218,0.0,-999.0,79,-99.99,,,0.00,weatherlink.com 1.10,2013-04-07 16:34:00,
2013-04-07 11:49:00,67.4,60.0,29.87,WNW,283,0.0,-999.0,78,-99.99,,,0.00,weatherlink.com 1.10,2013-04-07 16:49:00,
2013-04-07 12:04:00,68.6,61.0,29.86,East,98,7.0,-999.0,76,-99.99,,,0.00,weatherlink.com 1.10,2013-04-07 17:04:00,
2013-04-07 12:19:00,68.8,61.0,29.86,SW,233,0.0,-999.0,75,-99.99,,,0.00,weatherlink.com 1.10,2013-04-07 17:19:00,
2013-04-07 12:34:00,68.6,61.0,29.85,South,184,0.0,-999.0,76,-99.99,,,0.00,weatherlink.com 1.10,2013-04-07 17:34:00,
2013-04-07 12:49:00,68.9,61.0,29.84,East,97,0.0,-999.0,75,-99.99,,,0.00,weatherlink.com 1.10,2013-04-07 17:49:00,
2013-04-07 13:04:00,69.6,61.0,29.83,SW,234,0.0,-999.0,74,-99.99,,,0.00,weatherlink.com 1.10,2013-04-07 18:04:00,
2013-04-07 13:35:00,70.8,62.0,29.82,SE,146,4.0,-999.0,73,-99.99,,,0.00,weatherlink.com 1.10,2013-04-07 18:35:00,
2013-04-07 13:50:00,72.3,62.0,29.81,ESE,112,0.0,-999.0,70,-99.99,,,0.00,weatherlink.com 1.10,2013-04-07 18:50:00,
2013-04-07 14:05:00,72.4,62.0,29.80,SE,130,0.0,-999.0,69,-99.99,,,0.00,weatherlink.com 1.10,2013-04-07 19:05:00,
2013-04-07 14:20:00,72.5,62.0,29.80,South,188,4.0,-999.0,69,-99.99,,,0.00,weatherlink.com 1.10,2013-04-07 19:20:00,
2013-04-07 14:35:00,72.1,62.0,29.79,ESE,110,0.0,-999.0,70,-99.99,,,0.00,weatherlink.com 1.10,2013-04-07 19:35:00,
2013-04-07 14:50:00,72.1,62.0,29.78,ESE,123,9.0,-999.0,70,-99.99,,,0.00,weatherlink.com 1.10,2013-04-07 19:50:00,
2013-04-07 15:20:00,72.0,62.0,29.77,SSE,148,0.0,-999.0,70,-99.99,,,0.00,weatherlink.com 1.10,2013-04-07 20:20:00,
2013-04-07 15:35:00,72.1,62.0,29.77,ENE,76,0.0,-999.0,70,-99.99,,,0.00,weatherlink.com 1.10,2013-04-07 20:35:00,
2013-04-07 15:50:00,72.0,62.0,29.76,WSW,240,0.0,-999.0,70,-99.99,,,0.00,weatherlink.com 1.10,2013-04-07 20:50:00,
2013-04-07 16:05:00,72.0,62.0,29.76,SSW,192,0.0,-999.0,70,-99.99,,,0.00,weatherlink.com 1.10,2013-04-07 21:05:00,
2013-04-07 16:20:00,72.0,62.0,29.75,SE,146,0.0,-999.0,71,-99.99,,,0.00,weatherlink.com 1.10,2013-04-07 21:20:00,
2013-04-07 16:35:00,71.7,62.0,29.75,South,191,0.0,-999.0,71,-99.99,,,0.00,weatherlink.com 1.10,2013-04-07 21:35:00,
2013-04-07 16:50:00,72.0,62.0,29.74,SW,221,0.0,-999.0,71,-99.99,,,0.00,weatherlink.com 1.10,2013-04-07 21:50:00,
2013-04-07 17:05:00,72.3,62.0,29.73,NE,53,4.0,-999.0,70,-99.99,,,0.00,weatherlink.com 1.10,2013-04-07 22:05:00,
2013-04-07 17:20:00,72.3,62.0,29.73,South,189,0.0,-999.0,70,-99.99,,,0.00,weatherlink.com 1.10,2013-04-07 22:20:00,
2013-04-07 17:35:00,72.6,62.0,29.74,East,91,0.0,-999.0,69,-99.99,,,0.00,weatherlink.com 1.10,2013-04-07 22:35:00,
2013-04-07 17:50:00,73.0,62.0,29.73,SSE,160,0.0,-999.0,69,-99.99,,,0.00,weatherlink.com 1.10,2013-04-07 22:50:00,
2013-04-07 18:05:00,73.0,62.0,29.73,East,79,0.0,-999.0,68,-99.99,,,0.00,weatherlink.com 1.10,2013-04-07 23:05:00,
2013-04-07 18:20:00,72.9,62.0,29.72,NNE,33,0.0,-999.0,68,-99.99,,,0.00,weatherlink.com 1.10,2013-04-07 23:20:00,
2013-04-07 18:35:00,73.0,62.0,29.73,SSE,160,0.0,-999.0,69,-99.99,,,0.00,weatherlink.com 1.10,2013-04-07 23:35:00,
2013-04-07 18:50:00,72.7,62.0,29.73,ESE,117,0.0,-999.0,69,-99.99,,,0.00,weatherlink.com 1.10,2013-04-07 23:50:00,
2013-04-07 19:05:00,72.6,62.0,29.73,SE,139,0.0,-999.0,69,-99.99,,,0.00,weatherlink.com 1.10,2013-04-08 00:05:00,
2013-04-07 19:20:00,72.5,62.0,29.73,East,80,0.0,-999.0,69,-99.99,,,0.00,weatherlink.com 1.10,2013-04-08 00:20:00,
2013-04-07 19:35:00,72.3,62.0,29.73,SE,132,0.0,-999.0,69,-99.99,,,0.00,weatherlink.com 1.10,2013-04-08 00:35:00,
2013-04-07 19:50:00,72.1,62.0,29.72,SSE,160,0.0,-999.0,70,-99.99,,,0.00,weatherlink.com 1.10,2013-04-08 00:50:00,
2013-04-07 20:05:00,71.9,62.0,29.73,East,94,0.0,-999.0,70,-99.99,,,0.00,weatherlink.com 1.10,2013-04-08 01:05:00,
2013-04-07 20:20:00,71.6,62.0,29.72,ESE,115,0.0,-999.0,71,-99.99,,,0.00,weatherlink.com 1.10,2013-04-08 01:20:00,
2013-04-07 20:35:00,71.3,61.0,29.72,ESE,110,0.0,-999.0,71,-99.99,,,0.00,weatherlink.com 1.10,2013-04-08 01:35:00,
2013-04-07 20:50:00,71.1,61.0,29.72,ENE,78,0.0,-999.0,71,-99.99,,,0.00,weatherlink.com 1.10,2013-04-08 01:50:00,
2013-04-07 21:05:00,70.8,61.0,29.72,SE,129,0.0,-999.0,72,-99.99,,,0.00,weatherlink.com 1.10,2013-04-08 02:05:00,
2013-04-07 21:20:00,70.3,61.0,29.72,ESE,115,0.0,-999.0,73,-99.99,,,0.00,weatherlink.com 1.10,2013-04-08 02:20:00,
2013-04-07 21:35:00,70.1,61.0,29.73,ESE,114,0.0,-999.0,73,-99.99,,,0.00,weatherlink.com 1.10,2013-04-08 02:35:00,
2013-04-07 22:05:00,69.9,61.0,29.72,SE,132,7.0,-999.0,73,-99.99,,,0.00,weatherlink.com 1.10,2013-04-08 03:05:00,
2013-04-07 22:20:00,69.5,61.0,29.73,East,86,0.0,-999.0,74,-99.99,,,0.00,weatherlink.com 1.10,2013-04-08 03:20:00,
2013-04-07 22:35:00,69.2,61.0,29.73,ENE,70,2.0,-999.0,75,-99.99,,,0.00,weatherlink.com 1.10,2013-04-08 03:35:00,
2013-04-07 22:50:00,68.9,61.0,29.72,SSE,164,0.0,-999.0,76,-99.99,,,0.00,weatherlink.com 1.10,2013-04-08 03:50:00,
2013-04-07 23:05:00,68.5,61.0,29.72,SSE,152,0.0,-999.0,76,-99.99,,,0.00,weatherlink.com 1.10,2013-04-08 04:05:00,
2013-04-07 23:20:00,68.3,61.0,29.73,ESE,111,0.0,-999.0,77,-99.99,,,0.00,weatherlink.com 1.10,2013-04-08 04:20:00,
2013-04-07 23:35:00,68.0,61.0,29.72,SE,139,0.0,-999.0,78,-99.99,,,0.00,weatherlink.com 1.10,2013-04-08 04:35:00,
2013-04-07 23:50:00,67.8,61.0,29.73,ESE,103,0.0,-999.0,78,-99.99,,,0.00,weatherlink.com 1.10,2013-04-08 04:50:00,